Main page
METAR-TAF:

METAR-TAF

Airports :

Pécs-Pogány International Airport

Pécs, Hungary

latitude: 46-06N, longitude: 018-14E, elevation: 201 m

Current weather observation

The report was made 7 hours and 49 minutes ago, at 17:45 UTC
Wind 5 kt from the East
Temperature 9°C
Humidity 87%
Pressure 1011 hPa
Visibility 10 km or more
Broken clouds at a height of 3000 ft

METAR: LHPP 141745Z 10005KT 9999 BKN030 09/07 Q1011

Time: 02:34 (01:34 UTC)

Forecast

The report was made 11 hours and 19 minutes ago, at 14:15 UTC
Forecast valid from 14 at 15 UTC to 14 at 24 UTC
Wind 3 kt from the East/Northeast
Visibility 10 km or more
no clouds below 1500 m and no cumulonimbus
Becoming
from 14 at 18 UTC to 14 at 21 UTC
Visibility: 5000 m
Broken clouds at a height of 1500 ft
mist
Temporary
from 14 at 21 UTC to 14 at 24 UTC
Visibility: 2000 m
Broken clouds at a height of 1000 ft
mist

TAF: LHPP 141415Z 1415/1424 06003KT CAVOK BECMG 1418/1421 5000 BR BKN015 TEMPO 1421/1424 2000 BR BKN010

Weather observations and forecasts of more than 4000 airports (METAR and TAF reports).

The available stations are represented by yellow and red dots on the map.

Hover mouse over dot to see the name of the station.

Then click to see weather observations and forecasts.

To change the map : click on the green buttons with a black cross to zoom in, on the green button with a dash to zoom out, or on the green arrows for adjacent maps.


METAR-TAF: